Time;durP1;ratioP1;P1;durP2;ratioP2;P2;SDS_P1;SDS_P2;PMS_P1;PMS_P2;Temp;Humidity;BMP_temperature;BMP_pressure;BME280_temperature;BME280_humidity;BME280_pressure;Samples;Min_cycle;Max_cycle;Signal;HPM_P1;HPM_P2
2022/03/17 00:01:51;;;;;;;26.90;17.42;;;10.70;99.90;;;;;;5007700;28;20532;-72
2022/03/17 00:04:17;;;;;;;23.35;16.40;;;11.20;99.90;;;;;;5009270;28;20504;-72
2022/03/17 00:06:43;;;;;;;28.25;18.00;;;10.70;99.90;;;;;;5009436;28;20442;-72
2022/03/17 00:09:08;;;;;;;25.23;17.52;;;10.70;99.90;;;;;;4976560;28;20147;-72
2022/03/17 00:11:34;;;;;;;25.15;17.58;;;10.70;99.90;;;;;;5010047;28;20062;-72
2022/03/17 00:14:03;;;;;;;27.80;17.85;;;10.60;99.90;;;;;;5009194;28;20038;-72
2022/03/17 00:16:28;;;;;;;26.38;18.02;;;10.60;99.90;;;;;;5008607;28;20561;-72
2022/03/17 00:18:55;;;;;;;28.13;17.48;;;10.70;99.90;;;;;;4998640;28;20125;-72
2022/03/17 00:21:22;;;;;;;28.42;17.92;;;10.60;99.90;;;;;;5009349;28;20054;-72
2022/03/17 00:23:48;;;;;;;27.17;18.20;;;10.60;99.90;;;;;;5010001;28;20042;-72
2022/03/17 00:26:15;;;;;;;27.15;18.70;;;10.60;99.90;;;;;;5009930;28;20104;-72
2022/03/17 00:28:40;;;;;;;28.23;18.60;;;10.60;99.90;;;;;;5009179;28;20042;-73
2022/03/17 00:31:06;;;;;;;27.65;18.33;;;10.60;99.90;;;;;;4992099;28;20076;-72
2022/03/17 00:33:31;;;;;;;28.38;17.67;;;10.60;99.90;;;;;;5006723;28;20082;-72
2022/03/17 00:35:57;;;;;;;25.67;17.92;;;11.70;99.90;;;;;;5009390;28;20123;-72
2022/03/17 00:38:23;;;;;;;23.58;17.75;;;10.70;99.90;;;;;;5008593;28;20370;-72
2022/03/17 00:40:48;;;;;;;25.15;17.95;;;10.60;99.90;;;;;;5009778;28;20085;-72
2022/03/17 00:43:15;;;;;;;28.02;18.70;;;11.00;99.90;;;;;;5008530;28;20129;-72
2022/03/17 00:45:42;;;;;;;27.65;18.33;;;10.70;99.90;;;;;;4992443;28;20402;-72
2022/03/17 00:48:09;;;;;;;27.88;18.15;;;10.60;99.90;;;;;;5008423;28;20129;-72
2022/03/17 00:50:35;;;;;;;28.70;17.85;;;11.10;99.90;;;;;;5005890;28;20034;-72
2022/03/17 00:53:01;;;;;;;26.95;18.63;;;10.60;99.90;;;;;;5009830;28;20081;-72
2022/03/17 00:55:27;;;;;;;25.35;17.27;;;10.60;99.90;;;;;;5008141;28;20068;-72
2022/03/17 00:57:53;;;;;;;26.08;17.70;;;10.80;99.90;;;;;;5007643;28;20107;-72
2022/03/17 01:00:20;;;;;;;25.98;17.95;;;10.60;99.90;;;;;;5009293;28;20049;-73
2022/03/17 01:02:51;;;;;;;26.75;19.15;;;10.80;99.90;;;;;;5008066;28;20486;-72
2022/03/17 01:05:17;;;;;;;24.67;17.48;;;10.60;99.90;;;;;;5006776;28;20516;-72
2022/03/17 01:07:43;;;;;;;28.20;18.02;;;10.60;99.90;;;;;;5008020;28;20084;-72
2022/03/17 01:10:12;;;;;;;27.58;18.42;;;10.60;99.90;;;;;;5008804;28;20458;-72
2022/03/17 01:12:38;;;;;;;25.92;18.23;;;10.60;99.90;;;;;;5009162;28;20045;-72
2022/03/17 01:15:04;;;;;;;27.67;18.63;;;10.60;99.90;;;;;;5008487;28;20062;-72
2022/03/17 01:17:30;;;;;;;25.48;17.75;;;10.70;99.90;;;;;;5007647;28;20081;-72
2022/03/17 01:19:55;;;;;;;28.63;18.92;;;10.60;99.90;;;;;;5007475;28;20041;-73
2022/03/17 01:22:21;;;;;;;26.17;18.38;;;10.60;99.90;;;;;;5008885;28;20124;-72
2022/03/17 01:24:49;;;;;;;29.75;18.65;;;10.60;99.90;;;;;;5008824;28;20136;-73
2022/03/17 01:27:15;;;;;;;28.45;18.98;;;10.60;99.90;;;;;;5009895;28;20113;-72
2022/03/17 01:29:43;;;;;;;28.55;19.05;;;10.60;99.90;;;;;;4997170;28;20568;-72
2022/03/17 01:32:09;;;;;;;28.33;18.17;;;10.60;99.90;;;;;;4987451;28;20059;-72
2022/03/17 01:34:34;;;;;;;28.88;19.33;;;10.70;99.90;;;;;;4988085;28;20072;-72
2022/03/17 01:37:00;;;;;;;30.35;18.35;;;10.60;99.90;;;;;;4990266;28;20046;-73
2022/03/17 01:39:26;;;;;;;28.17;19.50;;;10.60;99.90;;;;;;5005456;28;20129;-72
2022/03/17 01:41:51;;;;;;;28.42;19.15;;;10.60;99.90;;;;;;4989449;28;20046;-72
2022/03/17 01:44:17;;;;;;;29.45;18.95;;;10.60;99.90;;;;;;4989923;28;20457;-72
2022/03/17 01:49:27;;;;;;;27.92;18.67;;;10.60;99.90;;;;;;4987247;28;20057;-72
2022/03/17 01:51:52;;;;;;;28.50;19.35;;;10.60;99.90;;;;;;5002617;28;20172;-72
2022/03/17 01:54:19;;;;;;;26.58;16.63;;;10.50;99.90;;;;;;5008659;28;20145;-72
2022/03/17 01:56:46;;;;;;;31.75;19.02;;;11.00;99.90;;;;;;5008855;28;20082;-72
2022/03/17 01:59:12;;;;;;;31.02;19.80;;;10.60;99.90;;;;;;5008967;28;20042;-72
2022/03/17 02:01:38;;;;;;;25.88;17.40;;;10.50;99.90;;;;;;5007233;28;20038;-72
2022/03/17 02:04:05;;;;;;;28.67;18.95;;;10.50;99.90;;;;;;5008535;28;20050;-72
2022/03/17 02:06:31;;;;;;;29.70;20.15;;;11.80;99.90;;;;;;5007362;28;20486;-72
2022/03/17 02:08:57;;;;;;;28.40;19.13;;;10.60;99.90;;;;;;5007725;28;20046;-72
2022/03/17 02:14:07;;;;;;;29.90;19.70;;;10.60;99.90;;;;;;5008341;28;20042;-72
2022/03/17 02:16:33;;;;;;;28.13;18.95;;;10.60;99.90;;;;;;5008382;28;20049;-72
2022/03/17 02:18:59;;;;;;;30.73;19.80;;;10.80;99.90;;;;;;5008945;28;20049;-72
2022/03/17 02:21:25;;;;;;;28.27;19.23;;;10.60;99.90;;;;;;5008246;28;20139;-72
2022/03/17 02:26:39;;;;;;;27.48;18.33;;;10.60;99.90;;;;;;5001347;28;20457;-72
2022/03/17 02:29:05;;;;;;;28.67;18.90;;;10.60;99.90;;;;;;5004667;28;20089;-72
2022/03/17 02:31:32;;;;;;;29.05;19.65;;;10.60;99.90;;;;;;4991357;28;20053;-72
2022/03/17 02:33:57;;;;;;;29.67;19.63;;;10.60;99.90;;;;;;5004650;28;20046;-72
2022/03/17 02:36:24;;;;;;;29.92;20.08;;;10.80;99.90;;;;;;5011744;28;20053;-72
2022/03/17 02:38:50;;;;;;;27.80;19.15;;;10.60;99.90;;;;;;5012358;28;20046;-72
2022/03/17 02:41:22;;;;;;;28.05;19.27;;;10.70;99.90;;;;;;5011110;28;20042;-72
2022/03/17 02:43:55;;;;;;;29.25;20.25;;;10.60;99.90;;;;;;5012082;28;20103;-72
2022/03/17 02:46:21;;;;;;;27.02;18.67;;;10.70;99.90;;;;;;4994009;28;20137;-72
2022/03/17 02:48:47;;;;;;;30.90;19.55;;;10.70;99.90;;;;;;5010922;28;20128;-72
2022/03/17 02:51:12;;;;;;;27.35;19.23;;;10.70;99.90;;;;;;4993606;28;20439;-72
2022/03/17 02:53:38;;;;;;;29.40;20.13;;;10.70;99.90;;;;;;5010722;28;20042;-72
2022/03/17 02:56:04;;;;;;;29.23;19.33;;;10.80;99.90;;;;;;5011107;28;20462;-72
2022/03/17 02:58:31;;;;;;;27.35;19.17;;;10.70;99.90;;;;;;5012085;28;20121;-72
2022/03/17 03:00:58;;;;;;;29.55;19.27;;;10.80;99.90;;;;;;5012421;28;20061;-72
2022/03/17 03:03:23;;;;;;;28.10;20.00;;;10.80;99.90;;;;;;5008746;28;20104;-72
2022/03/17 03:05:49;;;;;;;29.73;18.55;;;10.80;99.90;;;;;;5010997;28;20160;-73
2022/03/17 03:08:15;;;;;;;27.88;19.20;;;10.90;99.90;;;;;;5011392;28;20054;-72
2022/03/17 03:10:42;;;;;;;29.40;18.85;;;10.90;99.90;;;;;;4973456;28;20517;-72
2022/03/17 03:13:09;;;;;;;27.63;18.77;;;11.90;99.90;;;;;;4975087;28;20074;-72
2022/03/17 03:15:34;;;;;;;28.75;19.55;;;10.90;99.90;;;;;;5011872;28;20045;-72
2022/03/17 03:18:00;;;;;;;29.52;19.75;;;11.00;99.90;;;;;;5009575;28;20505;-72
2022/03/17 03:20:26;;;;;;;26.95;18.98;;;11.00;99.90;;;;;;5011120;28;20504;-73
2022/03/17 03:22:52;;;;;;;26.20;18.60;;;11.00;99.90;;;;;;5012189;28;20046;-72
2022/03/17 03:25:17;;;;;;;27.08;19.33;;;11.00;99.90;;;;;;5012483;28;20132;-72
2022/03/17 03:27:44;;;;;;;27.83;18.90;;;10.90;99.90;;;;;;5011432;28;20124;-72
2022/03/17 03:30:11;;;;;;;29.15;20.48;;;11.90;99.90;;;;;;5010145;28;20092;-72
2022/03/17 03:32:42;;;;;;;27.00;19.67;;;11.00;99.90;;;;;;5009684;28;20498;-72
2022/03/17 03:37:53;;;;;;;29.30;20.35;;;11.10;99.90;;;;;;5008290;28;20042;-72
2022/03/17 03:40:19;;;;;;;28.67;18.90;;;11.70;99.90;;;;;;5011274;28;20451;-72
2022/03/17 03:42:45;;;;;;;29.90;19.42;;;11.10;99.90;;;;;;5010754;28;20121;-72
2022/03/17 03:45:10;;;;;;;30.58;21.50;;;11.10;99.90;;;;;;5010180;28;20046;-72
2022/03/17 03:47:36;;;;;;;27.63;19.95;;;11.10;99.90;;;;;;5010418;28;20217;-72
2022/03/17 03:50:03;;;;;;;28.75;20.00;;;11.10;99.90;;;;;;5009898;28;20056;-72
2022/03/17 03:52:29;;;;;;;29.50;20.08;;;11.10;99.90;;;;;;5011784;28;20034;-72
2022/03/17 03:54:54;;;;;;;27.83;17.77;;;11.10;99.90;;;;;;5006460;28;20042;-72
2022/03/17 03:57:20;;;;;;;28.23;20.63;;;11.10;99.90;;;;;;5001904;28;20490;-73
2022/03/17 03:59:46;;;;;;;28.85;20.40;;;11.00;99.90;;;;;;5009916;28;20057;-72
2022/03/17 04:02:11;;;;;;;32.13;21.05;;;11.00;99.90;;;;;;5010318;28;20056;-72
2022/03/17 04:04:40;;;;;;;30.98;21.52;;;11.00;99.90;;;;;;5009450;28;20046;-72
2022/03/17 04:07:08;;;;;;;32.75;21.38;;;11.10;99.90;;;;;;5010484;28;20129;-72
2022/03/17 04:09:35;;;;;;;31.98;21.98;;;11.10;99.90;;;;;;5008880;28;20136;-72
2022/03/17 04:12:02;;;;;;;32.22;23.33;;;11.20;99.90;;;;;;5011122;28;20131;-72
2022/03/17 04:14:30;;;;;;;29.95;22.58;;;11.20;99.90;;;;;;5010015;28;20044;-72
2022/03/17 04:16:55;;;;;;;34.70;25.02;;;11.10;99.90;;;;;;5010407;28;20054;-72
2022/03/17 04:19:21;;;;;;;29.60;20.45;;;11.10;99.90;;;;;;5009361;28;20489;-72
2022/03/17 04:21:48;;;;;;;35.40;24.33;;;11.00;99.90;;;;;;5009746;28;20045;-73
2022/03/17 04:24:15;;;;;;;35.92;24.73;;;11.00;99.90;;;;;;5010017;28;20034;-72
2022/03/17 04:26:41;;;;;;;36.03;25.67;;;10.90;99.90;;;;;;5009035;28;20075;-72
2022/03/17 04:29:09;;;;;;;36.90;24.40;;;10.90;99.90;;;;;;5003283;28;20050;-72
2022/03/17 04:31:35;;;;;;;34.88;26.30;;;10.80;99.90;;;;;;4988182;28;20066;-72
2022/03/17 04:34:01;;;;;;;35.60;26.10;;;10.70;99.90;;;;;;4989290;28;20141;-71
2022/03/17 04:36:27;;;;;;;37.47;26.75;;;10.60;99.90;;;;;;4990560;28;20133;-71
2022/03/17 04:38:53;;;;;;;37.22;26.77;;;11.90;99.90;;;;;;5002871;28;20034;-70
2022/03/17 04:41:19;;;;;;;40.63;29.20;;;10.60;99.90;;;;;;5009907;28;20037;-71
2022/03/17 04:43:45;;;;;;;42.22;28.85;;;10.50;99.90;;;;;;5009681;28;20478;-71
2022/03/17 04:46:10;;;;;;;39.83;27.48;;;11.70;99.90;;;;;;5009422;28;20053;-72
2022/03/17 04:48:37;;;;;;;33.85;23.08;;;10.40;99.90;;;;;;5007319;28;20038;-71
2022/03/17 04:51:03;;;;;;;40.88;29.05;;;10.40;99.90;;;;;;5009578;28;20483;-71
2022/03/17 04:53:29;;;;;;;41.17;28.63;;;10.30;99.90;;;;;;5009136;28;20042;-71
2022/03/17 04:55:57;;;;;;;44.00;29.77;;;10.30;99.90;;;;;;4996115;28;20057;-71
2022/03/17 04:58:23;;;;;;;47.50;31.25;;;10.30;99.90;;;;;;4990309;28;20430;-72
2022/03/17 05:00:51;;;;;;;47.83;30.75;;;10.30;99.90;;;;;;4990878;28;20161;-72
2022/03/17 05:03:16;;;;;;;51.38;31.90;;;10.30;99.90;;;;;;4988129;28;20454;-71
2022/03/17 05:05:42;;;;;;;48.90;33.40;;;11.40;99.90;;;;;;4989426;28;20039;-72
2022/03/17 05:08:08;;;;;;;53.85;35.20;;;10.20;99.90;;;;;;4990151;28;20165;-72
2022/03/17 05:10:37;;;;;;;47.63;30.30;;;10.00;99.90;;;;;;4989535;28;20132;-72
2022/03/17 05:13:07;;;;;;;52.85;34.53;;;10.10;99.90;;;;;;4988499;28;20077;-72
2022/03/17 05:15:34;;;;;;;45.95;28.95;;;10.00;99.90;;;;;;4990697;28;20376;-72
2022/03/17 05:17:59;;;;;;;50.35;32.42;;;10.00;99.90;;;;;;4989648;28;20069;-73
2022/03/17 05:20:25;;;;;;;28.40;18.23;;;10.00;99.90;;;;;;5009454;28;20049;-72
2022/03/17 05:22:51;;;;;;;19.05;13.30;;;10.00;99.90;;;;;;5008780;28;20034;-73
2022/03/17 05:25:17;;;;;;;18.48;12.85;;;10.00;99.90;;;;;;5009057;28;20048;-72
2022/03/17 05:27:44;;;;;;;14.27;9.55;;;9.80;99.90;;;;;;5007928;28;20112;-72
2022/03/17 05:30:14;;;;;;;14.10;10.32;;;9.80;99.90;;;;;;5006996;28;20096;-73
2022/03/17 05:32:43;;;;;;;15.70;9.52;;;9.70;99.90;;;;;;5008578;28;20569;-73
2022/03/17 05:35:10;;;;;;;11.48;8.55;;;10.20;99.90;;;;;;5008257;28;20046;-70
2022/03/17 05:37:36;;;;;;;11.15;8.25;;;9.60;99.90;;;;;;5008562;28;20046;-71
2022/03/17 05:40:04;;;;;;;10.45;7.60;;;9.60;99.90;;;;;;5008982;28;20037;-73
2022/03/17 05:42:31;;;;;;;9.95;7.10;;;9.50;99.90;;;;;;5008639;28;20054;-72
2022/03/17 05:44:56;;;;;;;11.18;7.65;;;9.30;99.90;;;;;;5007780;28;20084;-72
2022/03/17 05:47:22;;;;;;;10.30;6.72;;;9.40;99.90;;;;;;5008923;28;20437;-72
2022/03/17 05:49:48;;;;;;;9.50;7.20;;;9.30;99.90;;;;;;5009808;28;20045;-71
2022/03/17 05:52:14;;;;;;;12.18;7.85;;;9.30;99.90;;;;;;5008464;28;20050;-71
2022/03/17 05:54:40;;;;;;;13.52;8.30;;;9.20;99.90;;;;;;5008838;28;20050;-71
2022/03/17 05:57:05;;;;;;;18.08;11.25;;;9.20;99.90;;;;;;5008232;28;20145;-72
2022/03/17 05:59:31;;;;;;;22.80;11.70;;;9.40;99.90;;;;;;5007160;28;20042;-71
2022/03/17 06:01:57;;;;;;;19.60;12.25;;;9.10;99.90;;;;;;5012031;28;20169;-72
2022/03/17 06:04:23;;;;;;;24.65;12.00;;;9.00;99.90;;;;;;5009973;28;20041;-72
2022/03/17 06:06:49;;;;;;;18.90;10.55;;;9.00;99.90;;;;;;5011972;28;20405;-71
2022/03/17 06:09:15;;;;;;;23.98;11.73;;;9.00;99.90;;;;;;5012014;28;20046;-72
2022/03/17 06:11:41;;;;;;;24.98;12.18;;;9.00;99.90;;;;;;5011531;28;20125;-72
2022/03/17 06:14:07;;;;;;;21.80;9.90;;;9.00;99.90;;;;;;5010170;28;20117;-72
2022/03/17 06:16:33;;;;;;;15.90;9.90;;;9.00;99.90;;;;;;5010286;28;20485;-73
2022/03/17 06:18:58;;;;;;;16.10;8.50;;;9.00;99.90;;;;;;5011037;28;20141;-72
2022/03/17 06:21:24;;;;;;;16.40;7.78;;;9.00;99.90;;;;;;5010300;28;20104;-72
2022/03/17 06:23:50;;;;;;;16.48;6.10;;;9.00;99.90;;;;;;5010262;28;20054;-72
2022/03/17 06:26:16;;;;;;;15.20;6.65;;;8.90;99.90;;;;;;5011864;28;20049;-72
2022/03/17 06:28:41;;;;;;;14.15;6.30;;;8.80;99.90;;;;;;5010841;28;20379;-71
2022/03/17 06:31:07;;;;;;;14.93;6.60;;;8.80;99.90;;;;;;5011239;28;20050;-72
2022/03/17 06:33:33;;;;;;;16.20;6.10;;;8.80;99.90;;;;;;5011507;28;20108;-72
2022/03/17 06:35:59;;;;;;;15.00;5.85;;;8.80;99.90;;;;;;5012168;28;20053;-72
2022/03/17 06:38:25;;;;;;;11.50;5.55;;;8.80;99.90;;;;;;5012185;28;20069;-72
2022/03/17 06:40:51;;;;;;;17.48;5.88;;;8.90;99.90;;;;;;5009863;28;20549;-73
2022/03/17 06:43:17;;;;;;;16.67;5.63;;;8.90;99.90;;;;;;5011914;28;20081;-71
2022/03/17 06:45:44;;;;;;;14.30;5.22;;;8.80;99.90;;;;;;5011301;28;20391;-72
2022/03/17 06:48:10;;;;;;;14.05;5.82;;;8.80;99.90;;;;;;5008353;28;20103;-71
2022/03/17 06:50:35;;;;;;;13.93;5.43;;;8.80;99.90;;;;;;5010255;28;20113;-70
2022/03/17 06:53:01;;;;;;;15.52;4.40;;;8.80;99.90;;;;;;5010470;28;20053;-71
2022/03/17 06:55:26;;;;;;;10.32;3.80;;;8.80;99.90;;;;;;5004504;28;20050;-70
2022/03/17 06:57:52;;;;;;;9.63;3.80;;;8.80;99.90;;;;;;5010351;28;20133;-71
2022/03/17 07:00:19;;;;;;;11.90;3.70;;;9.10;99.90;;;;;;5010716;28;20083;-71
2022/03/17 07:02:46;;;;;;;14.90;3.47;;;8.80;99.90;;;;;;5009635;28;20046;-70
2022/03/17 07:05:12;;;;;;;7.07;2.70;;;8.70;99.90;;;;;;5009564;28;20082;-70
2022/03/17 07:07:38;;;;;;;12.18;3.20;;;8.80;99.90;;;;;;5004837;28;20048;-72
2022/03/17 07:10:06;;;;;;;8.05;2.95;;;8.70;99.90;;;;;;5009200;28;20050;-72
2022/03/17 07:12:34;;;;;;;7.90;2.78;;;8.70;99.90;;;;;;5008619;28;20484;-71
2022/03/17 07:14:59;;;;;;;8.75;2.30;;;8.70;99.90;;;;;;4993031;28;20096;-71
2022/03/17 07:17:26;;;;;;;10.63;2.30;;;8.70;99.90;;;;;;5009805;28;20046;-71
2022/03/17 07:22:24;;;;;;;8.63;2.45;;;8.70;99.90;;;;;;5010386;28;20112;-71
2022/03/17 07:24:49;;;;;;;10.45;2.90;;;8.70;99.90;;;;;;5009103;28;20357;-71
2022/03/17 07:27:15;;;;;;;8.85;2.80;;;8.70;99.90;;;;;;5010276;28;20100;-72
2022/03/17 07:29:41;;;;;;;7.40;2.50;;;8.70;99.90;;;;;;5009534;28;20042;-71
2022/03/17 07:32:06;;;;;;;12.82;2.55;;;8.60;99.90;;;;;;5009598;28;20524;-72
2022/03/17 07:34:32;;;;;;;9.88;2.67;;;8.70;99.90;;;;;;5008989;28;20104;-71
2022/03/17 07:36:58;;;;;;;12.82;2.80;;;8.80;99.90;;;;;;5008689;28;20483;-71
2022/03/17 07:39:24;;;;;;;6.95;2.28;;;8.70;99.90;;;;;;5010252;28;20081;-71
2022/03/17 07:41:50;;;;;;;11.35;2.40;;;8.70;99.90;;;;;;5010413;28;20510;-71
2022/03/17 07:44:15;;;;;;;14.20;2.60;;;8.60;99.90;;;;;;5006190;28;20046;-72
2022/03/17 07:46:42;;;;;;;11.88;2.47;;;8.70;99.90;;;;;;5008373;28;20041;-72
2022/03/17 07:49:08;;;;;;;13.48;2.90;;;8.60;99.90;;;;;;5008045;28;20038;-73
2022/03/17 07:51:34;;;;;;;10.10;2.78;;;8.70;99.90;;;;;;5009519;28;20355;-73
2022/03/17 07:53:59;;;;;;;11.77;2.38;;;8.70;99.90;;;;;;5009927;28;20052;-74
2022/03/17 07:56:25;;;;;;;10.70;2.67;;;8.70;99.90;;;;;;5007982;28;20398;-73
2022/03/17 07:58:51;;;;;;;13.45;2.58;;;8.70;99.90;;;;;;5009020;28;20129;-78
2022/03/17 08:01:17;;;;;;;12.82;2.78;;;8.80;99.90;;;;;;5011108;28;20122;-70
2022/03/17 08:03:43;;;;;;;9.00;2.40;;;8.70;99.90;;;;;;5008657;28;20431;-70
2022/03/17 08:06:10;;;;;;;10.95;2.40;;;8.70;99.90;;;;;;5008738;28;20050;-71
2022/03/17 08:08:36;;;;;;;16.23;3.35;;;8.50;99.90;;;;;;5008806;28;20060;-70
2022/03/17 08:11:01;;;;;;;14.07;2.92;;;8.70;99.90;;;;;;5009023;28;20482;-70
2022/03/17 08:13:27;;;;;;;15.27;3.15;;;8.70;99.90;;;;;;5007162;28;20505;-72
2022/03/17 08:15:54;;;;;;;11.13;2.30;;;8.70;99.90;;;;;;4991583;28;20045;-70
2022/03/17 08:18:20;;;;;;;15.90;4.28;;;8.70;99.90;;;;;;5010485;28;20064;-70
2022/03/17 08:20:45;;;;;;;15.85;3.00;;;8.70;99.90;;;;;;5008416;28;20034;-70
2022/03/17 08:23:14;;;;;;;8.63;2.03;;;8.80;99.90;;;;;;5008417;28;20144;-70
2022/03/17 08:25:40;;;;;;;19.95;3.83;;;8.80;99.90;;;;;;5008853;28;20135;-70
2022/03/17 08:28:08;;;;;;;16.45;3.65;;;9.60;99.90;;;;;;4990842;28;20069;-70
2022/03/17 08:30:36;;;;;;;18.75;2.72;;;9.90;99.90;;;;;;5002003;28;20081;-70
2022/03/17 08:33:02;;;;;;;18.60;2.85;;;8.80;99.90;;;;;;5003430;28;20053;-70
2022/03/17 08:35:27;;;;;;;17.73;2.60;;;8.80;99.90;;;;;;5009421;28;20415;-70
2022/03/17 08:37:53;;;;;;;10.90;2.75;;;8.80;99.90;;;;;;5007245;28;20046;-71
2022/03/17 08:40:19;;;;;;;17.30;2.95;;;8.80;99.90;;;;;;5008944;28;20340;-71
2022/03/17 08:42:45;;;;;;;14.18;2.88;;;8.80;99.90;;;;;;5009188;28;20037;-70
2022/03/17 08:50:42;;;;;;;13.35;2.50;;;8.80;99.90;;;;;;5008655;28;20050;-71
2022/03/17 08:53:08;;;;;;;12.05;3.10;;;8.80;99.90;;;;;;5008879;28;20073;-70
2022/03/17 08:55:36;;;;;;;13.25;2.53;;;8.80;99.90;;;;;;4998566;28;20081;-70
2022/03/17 08:58:03;;;;;;;12.13;3.05;;;8.80;99.90;;;;;;4988598;28;20376;-71
2022/03/17 09:00:31;;;;;;;13.38;2.55;;;8.80;99.90;;;;;;4989928;28;20077;-71
2022/03/17 09:02:57;;;;;;;12.43;2.38;;;8.80;99.90;;;;;;4989425;28;21836;-71
2022/03/17 09:05:23;;;;;;;13.75;3.05;;;8.90;99.90;;;;;;5007594;28;20033;-70
2022/03/17 09:07:48;;;;;;;21.67;2.78;;;8.80;99.90;;;;;;5006847;28;20125;-70
2022/03/17 09:10:15;;;;;;;17.48;2.67;;;8.90;99.90;;;;;;4996647;28;20038;-70
2022/03/17 09:12:40;;;;;;;8.98;2.45;;;8.90;99.90;;;;;;4989621;28;20189;-70
2022/03/17 09:15:06;;;;;;;13.75;2.83;;;9.00;99.90;;;;;;5006579;28;20538;-71
2022/03/17 09:17:32;;;;;;;15.00;3.20;;;9.20;99.90;;;;;;5008478;28;20046;-70
2022/03/17 09:19:58;;;;;;;14.38;2.88;;;9.10;99.90;;;;;;5008091;28;20044;-70
2022/03/17 09:22:23;;;;;;;16.40;3.17;;;9.10;99.90;;;;;;5006868;28;20050;-70
2022/03/17 09:24:49;;;;;;;12.13;2.38;;;9.70;99.90;;;;;;5008070;28;20038;-71
2022/03/17 09:27:15;;;;;;;17.70;3.38;;;9.00;99.90;;;;;;5008945;28;20487;-70
2022/03/17 09:29:41;;;;;;;11.20;3.47;;;8.90;99.90;;;;;;5007970;28;20045;-70
2022/03/17 09:32:09;;;;;;;11.68;2.60;;;8.90;99.90;;;;;;5007625;28;20124;-70
2022/03/17 09:34:35;;;;;;;12.63;3.20;;;10.00;99.90;;;;;;5005486;28;20062;-70
2022/03/17 09:37:01;;;;;;;13.25;2.92;;;9.30;99.90;;;;;;5011818;28;20046;-69
2022/03/17 09:39:47;;;;;;;10.35;2.67;;;9.40;99.90;;;;;;5011032;28;20045;-71
2022/03/17 09:42:15;;;;;;;;;;;9.90;99.90;;;;;;5015310;28;20067;-70
2022/03/17 09:44:41;;;;;;;12.85;2.85;;;11.20;99.90;;;;;;5000142;28;20031;-69
2022/03/17 09:47:09;;;;;;;9.35;2.60;;;10.20;99.90;;;;;;5007636;28;20406;-69
2022/03/17 09:49:37;;;;;;;13.20;3.00;;;10.20;99.90;;;;;;5010422;28;20045;-71
2022/03/17 09:52:11;;;;;;;12.40;3.42;;;10.10;99.90;;;;;;5010379;28;20429;-71
2022/03/17 09:54:37;;;;;;;10.68;2.55;;;10.10;99.90;;;;;;5011333;28;20046;-71
2022/03/17 09:57:04;;;;;;;12.95;2.70;;;10.10;99.90;;;;;;5011768;28;20072;-71
2022/03/17 09:59:29;;;;;;;11.48;2.70;;;10.10;99.90;;;;;;5008562;28;20393;-71
2022/03/17 10:01:57;;;;;;;13.32;3.30;;;10.20;99.90;;;;;;5012129;28;20046;-70
2022/03/17 10:04:23;;;;;;;13.38;2.97;;;10.30;99.90;;;;;;5010309;28;20087;-71
2022/03/17 10:06:50;;;;;;;19.55;3.30;;;10.20;99.90;;;;;;5009727;28;20533;-71
2022/03/17 10:09:16;;;;;;;13.18;2.88;;;11.40;99.90;;;;;;5011965;28;20038;-71
2022/03/17 10:11:42;;;;;;;13.77;2.78;;;12.60;99.90;;;;;;5011513;28;20494;-70
2022/03/17 10:14:09;;;;;;;14.27;3.00;;;13.40;99.90;;;;;;5011553;28;20493;-70
2022/03/17 10:16:36;;;;;;;12.15;2.90;;;14.00;99.90;;;;;;5011575;28;20091;-70
2022/03/17 10:19:05;;;;;;;10.80;3.15;;;15.00;99.90;;;;;;5010234;28;20477;-71
2022/03/17 10:21:31;;;;;;;10.88;2.38;;;14.80;99.90;;;;;;5011876;28;20133;-71
2022/03/17 10:24:07;;;;;;;12.20;2.60;;;15.30;99.90;;;;;;5012325;28;20053;-71
2022/03/17 10:26:46;;;;;;;10.93;2.53;;;15.30;99.90;;;;;;5010095;28;20045;-70
2022/03/17 10:29:25;;;;;;;11.13;2.38;;;15.00;99.90;;;;;;5013052;28;20049;-70
2022/03/17 10:31:50;;;;;;;9.35;2.53;;;14.90;99.90;;;;;;5012378;28;20487;-70
2022/03/17 10:34:17;;;;;;;12.02;2.75;;;17.40;99.90;;;;;;5010050;28;20112;-68
2022/03/17 10:36:45;;;;;;;8.20;2.35;;;19.50;97.50;;;;;;5012530;28;20506;-73
2022/03/17 10:39:12;;;;;;;10.43;2.35;;;20.90;94.40;;;;;;5012307;28;20045;-73
2022/03/17 10:41:46;;;;;;;12.23;2.70;;;20.80;92.20;;;;;;5011988;28;20406;-73
2022/03/17 10:44:15;;;;;;;10.35;2.75;;;20.10;90.80;;;;;;5012848;28;20050;-73
2022/03/17 10:47:01;;;;;;;10.07;2.72;;;19.30;91.20;;;;;;4992384;28;20042;-72
2022/03/17 10:49:27;;;;;;;9.70;2.72;;;19.40;93.90;;;;;;5007180;28;20397;-73
2022/03/17 10:51:55;;;;;;;9.20;2.65;;;21.50;91.30;;;;;;5009769;28;20148;-72
2022/03/17 10:54:20;;;;;;;8.35;2.42;;;24.20;81.70;;;;;;5012622;28;20050;-73
2022/03/17 10:57:09;;;;;;;9.85;2.72;;;25.20;69.00;;;;;;5005024;28;20362;-71
2022/03/17 10:59:46;;;;;;;10.48;2.30;;;26.80;64.40;;;;;;4994552;28;20041;-73
2022/03/17 11:02:21;;;;;;;10.13;2.33;;;27.60;58.30;;;;;;4993071;28;20175;-76
2022/03/17 11:04:47;;;;;;;10.87;2.50;;;28.70;56.30;;;;;;4992034;28;20048;-74
2022/03/17 11:07:15;;;;;;;13.48;3.10;;;29.20;55.00;;;;;;5009559;28;20389;-75
2022/03/17 11:09:45;;;;;;;10.55;2.72;;;29.20;53.30;;;;;;5010167;28;20064;-74
2022/03/17 11:12:17;;;;;;;7.80;2.42;;;28.70;52.30;;;;;;5010583;28;20058;-75
2022/03/17 11:14:44;;;;;;;11.75;2.90;;;28.70;51.80;;;;;;5009938;28;20124;-74
2022/03/17 11:17:14;;;;;;;12.82;2.65;;;29.70;51.00;;;;;;5009649;28;20050;-74
2022/03/17 11:19:44;;;;;;;8.30;2.40;;;30.40;49.60;;;;;;5010149;28;20116;-73
2022/03/17 11:22:14;;;;;;;9.52;2.58;;;29.50;48.80;;;;;;5009763;28;20033;-74
2022/03/17 11:24:40;;;;;;;12.18;2.67;;;28.00;49.10;;;;;;5010328;28;20420;-76
2022/03/17 11:27:08;;;;;;;9.70;2.67;;;26.30;50.40;;;;;;5010883;28;20033;-77
2022/03/17 11:29:40;;;;;;;8.80;2.30;;;26.30;51.40;;;;;;4999368;28;20042;-76
2022/03/17 11:32:09;;;;;;;7.70;2.42;;;25.40;50.30;;;;;;4989577;28;20057;-76
2022/03/17 11:34:38;;;;;;;10.20;2.47;;;24.20;52.60;;;;;;4992602;28;20183;-76
2022/03/17 11:37:24;;;;;;;11.05;2.60;;;23.10;53.90;;;;;;5002573;28;20046;-77
2022/03/17 11:39:58;;;;;;;9.55;2.58;;;21.80;56.60;;;;;;5001022;28;20056;-75
2022/03/17 11:42:33;;;;;;;9.32;2.95;;;22.70;55.20;;;;;;4999110;28;20050;-76
2022/03/17 11:45:12;;;;;;;7.32;2.35;;;22.50;55.40;;;;;;4997817;28;20137;-75
2022/03/17 11:47:42;;;;;;;9.73;2.75;;;21.50;55.60;;;;;;4999342;28;20096;-78
2022/03/17 11:50:21;;;;;;;10.23;2.70;;;20.60;57.70;;;;;;4995929;28;20049;-77
2022/03/17 11:52:58;;;;;;;9.05;2.40;;;20.30;59.70;;;;;;4997834;28;20046;-77
2022/03/17 11:55:42;;;;;;;7.45;2.28;;;21.40;58.90;;;;;;5000426;28;20455;-77
2022/03/17 11:58:31;;;;;;;9.77;2.40;;;22.60;57.90;;;;;;4995663;28;20073;-77
2022/03/17 12:01:11;;;;;;;12.23;2.22;;;23.30;56.20;;;;;;4997776;28;20050;-77
2022/03/17 12:03:50;;;;;;;11.18;2.67;;;23.40;54.40;;;;;;4999180;28;20110;-77
2022/03/17 12:06:24;;;;;;;7.75;2.60;;;24.10;53.90;;;;;;4998338;28;20061;-76
2022/03/17 12:09:02;;;;;;;9.70;2.13;;;25.00;52.90;;;;;;4982270;28;20207;-76
2022/03/17 12:11:43;;;;;;;10.68;2.60;;;25.90;52.80;;;;;;4998127;28;20037;-76
2022/03/17 12:14:16;;;;;;;8.52;2.30;;;26.90;51.50;;;;;;4998545;28;20041;-76
2022/03/17 12:16:52;;;;;;;10.77;2.60;;;28.20;49.30;;;;;;4999170;28;20368;-75
2022/03/17 12:19:30;;;;;;;9.85;2.30;;;29.00;48.60;;;;;;4997329;28;20057;-76
2022/03/17 12:22:00;;;;;;;11.68;2.63;;;29.60;47.00;;;;;;4998269;28;20042;-75
2022/03/17 12:24:45;;;;;;;11.27;2.28;;;30.30;46.10;;;;;;4996392;28;20058;-74
2022/03/17 12:27:26;;;;;;;12.00;2.50;;;29.40;45.90;;;;;;4996353;28;20129;-74
2022/03/17 12:30:07;;;;;;;10.52;2.95;;;28.10;45.80;;;;;;4997618;28;20038;-74
2022/03/17 12:32:35;;;;;;;8.43;2.63;;;25.90;47.80;;;;;;4996604;28;20463;-76
2022/03/17 12:35:03;;;;;;;7.43;2.20;;;24.10;49.10;;;;;;5006833;28;20068;-74
2022/03/17 12:37:32;;;;;;;11.65;2.60;;;22.60;50.80;;;;;;5009312;28;20054;-74
2022/03/17 12:40:02;;;;;;;8.30;2.40;;;21.70;52.60;;;;;;5008924;28;20445;-74
2022/03/17 12:42:28;;;;;;;9.65;2.67;;;19.90;53.80;;;;;;5007035;28;20045;-74
2022/03/17 12:45:03;;;;;;;12.18;2.35;;;19.60;56.00;;;;;;5009003;28;20120;-74
2022/03/17 12:47:31;;;;;;;11.93;2.65;;;18.60;56.60;;;;;;5008444;28;20037;-74
2022/03/17 12:49:57;;;;;;;10.15;2.50;;;18.20;59.50;;;;;;5008001;28;20034;-74
2022/03/17 12:52:26;;;;;;;13.27;2.28;;;18.20;62.90;;;;;;5009247;28;20050;-74
2022/03/17 12:54:54;;;;;;;8.40;2.50;;;17.70;66.70;;;;;;5002414;28;20050;-75
2022/03/17 12:57:22;;;;;;;7.82;2.28;;;17.80;70.60;;;;;;4987753;28;20050;-74
2022/03/17 12:59:48;;;;;;;7.38;2.20;;;18.00;73.90;;;;;;4987594;28;20060;-74